Robertsdale, AL (36567)

2:37 PM CDT on July 26, 2016 (GMT -0500)
Elsanor-Robertsdale | | Change Station

Elev 151 ft 30.58 °N, 87.56 °W | Updated 8 seconds ago

Overcast
Overcast
84.2 °F
Feels Like 97 °F
N
0.9
Wind Variable Wind from NNE
Gusts 2.5 mph

Today
High -- | Low -- °F
--% Chance of Precip.
Yesterday
High -- | Low -- °F
Precip. -- in
Pressure 29.97 in
Visibility 7.0 miles
Clouds Scattered Clouds 1400 ft
Mostly Cloudy 3900 ft
Overcast 5000 ft
Heat Index 97 °F
Dew Point 80 °F
Humidity 86%
Rainfall 0.22 in
Snow Depth Not available.
6:05 AM 7:48 PM
Waning Gibbous, 52% visible
METAR KCQF 261915Z AUTO 19007KT 170V230 7SM SCT014 BKN039 OVC050 26/26 A2997 RMK AO2
Pressure 29.97 in
Visibility 7.0 miles
Clouds Scattered Clouds 1400 ft
Mostly Cloudy 3900 ft
Overcast 5000 ft
Heat Index 97 °F
Dew Point 80 °F
Humidity 86%
Rainfall 0.22 in
Snow Depth Not available.
6:05 AM 7:48 PM
Waning Gibbous, 52% visible
METAR KCQF 261915Z AUTO 19007KT 170V230 7SM SCT014 BKN039 OVC050 26/26 A2997 RMK AO2

10-Day Weather Forecast

Almanac

Astronomy

Jul. 26, 2016 Rise Set
Actual Time
Civil Twilight
Nautical Twilight
Astronomical Twilight
Moon
Length of Visible Light
Length of Day
Tomorrow will be .
, % of the Moon is Illuminated

Today's Extremes

State Highs State Lows

Community

WunderPhotos

Upload Photos

1,927,665 photos uploaded!

WunderBlog® & News

Nearby

Air Quality

  Air Quality AQ Index Pollutant
Not available.

Snow Depth

Station Depth Elevation

Earthquake Activity

City Distance Mag. Time & Date
Minimum magnitude displayed is 2.5.

Coastal Water Temperatures

Place Temperature

Stations

Nearby Weather Stations

Station Location Temp. Windchill Dew Point Humidity Wind Precip. Elev Updated Type
                   

Watches & Warnings

There are currently no watches in effect.